Station Historical Data
Daily Summary for April 9, 2017 Units:  Metric    English   Both
« Previous Day
Next Day »
Daily Weekly Monthly Yearly Custom
  High: Low: Average:
Temperature: 25.7 °C 5.4 °C 16.2 °C
Dew Point: 6.2 °C -9.9 °C -2.8 °C
Humidity: 50% 16% 29%
Wind Speed: 3.2km/h 0km/h 0.2km/h
Wind Gust: 11.3km/h - -
Wind- - WNW
Pressure: 1023.9 hPa 1019.2 hPa -
Precipitation: 0.51 mm    
Historical Graphs
 
 
Tabular Data for April 9, 2017
Time Temperature Dew Point Pressure Wind Wind Speed Wind Gust Humidity Rainfall Rate (Hourly) solar Conditions
00:00 9.4 °C -6.5 °C 1019.9 hPa Calm     32% 0 mm 0.0 W/m2 SCT
00:15 9.6 °C -6.3 °C 1019.9 hPa Calm     32% 0 mm 0.0 W/m2 SCT
00:30 9 °C -6.8 °C 1019.9 hPa Calm     32% 0 mm 0.0 W/m2 SCT
00:45 8.6 °C -7.2 °C 1019.9 hPa Calm     32% 0 mm 0.0 W/m2 SCT
01:00 8.3 °C -7.4 °C 1019.9 hPa Calm     32% 0 mm 0.0 W/m2 SCT
01:15 8.1 °C -7.6 °C 1019.9 hPa Calm     32% 0 mm 0.0 W/m2 SCT
01:30 8 °C -7.7 °C 1019.9 hPa Calm     32% 0 mm 0.0 W/m2 SCT
01:45 7.8 °C -7.9 °C 1019.5 hPa Calm     32% 0 mm 0.0 W/m2 SCT
02:00 7.6 °C -8.1 °C 1019.5 hPa Calm     32% 0 mm 0.0 W/m2 SCT
02:15 7.3 °C -8.4 °C 1019.5 hPa Calm     32% 0 mm 0.0 W/m2 SCT
02:30 7.1 °C -8.6 °C 1019.5 hPa Calm     32% 0 mm 0.0 W/m2 SCT
02:45 7.1 °C -8.5 °C 1019.5 hPa Calm     32% 0 mm 0.0 W/m2 SCT
03:00 7.6 °C -8.1 °C 1019.5 hPa Calm     32% 0 mm 0.0 W/m2 SCT
03:15 7.8 °C -7.9 °C 1019.2 hPa Calm     32% 0 mm 0.0 W/m2 SCT
03:30 7.8 °C -7.9 °C 1019.5 hPa Calm     32% 0 mm 0.0 W/m2 SCT
03:45 8.3 °C -7.4 °C 1019.2 hPa Calm     32% 0 mm 0.0 W/m2 SCT
04:00 8.5 °C -7.3 °C 1019.5 hPa Calm     32% 0 mm 0.0 W/m2 SCT
04:15 8.7 °C -7.1 °C 1019.9 hPa Calm     32% 0 mm 0.0 W/m2 SCT
04:30 8.8 °C -7 °C 1019.9 hPa Calm     32% 0 mm 0.0 W/m2 SCT
04:45 8.9 °C -6.9 °C 1019.9 hPa Calm     32% 0 mm 0.0 W/m2 SCT
05:00 9.1 °C -6.8 °C 1019.9 hPa Calm     32% 0 mm 0.0 W/m2 SCT
05:15 9.1 °C -6.7 °C 1020.2 hPa Calm     32% 0 mm 0.0 W/m2 SCT
05:30 9.2 °C -6.6 °C 1020.2 hPa Calm     32% 0 mm 0.0 W/m2 SCT
05:45 9.3 °C -6.6 °C 1020.2 hPa Calm     32% 0 mm 0.0 W/m2 SCT
06:00 9.3 °C -6.6 °C 1020.5 hPa Calm     32% 0 mm 0.0 W/m2 SCT
06:15 9.4 °C -6.5 °C 1020.2 hPa Calm     32% 0 mm 0.0 W/m2 SCT
06:30 9.4 °C -6.5 °C 1020.9 hPa Calm     32% 0 mm 0.0 W/m2 SCT
06:45 9.4 °C -6.4 °C 1021.2 hPa Calm     32% 0 mm 0.0 W/m2 SCT
07:00 9.4 °C -6.4 °C 1020.9 hPa Calm     32% 0 mm 0.0 W/m2 SCT
07:15 9.4 °C -6.4 °C 1021.6 hPa Calm     32% 0 mm 0.0 W/m2 SCT
07:30 9.4 °C -6.4 °C 1021.6 hPa Calm     32% 0 mm 0.0 W/m2 SCT
07:45 9.5 °C -6.4 °C 1021.9 hPa Calm     32% 0 mm 0.0 W/m2 SCT
08:00 5.4 °C -9.9 °C 1021.9 hPa Calm     32% 0 mm 0.0 W/m2 SCT
08:15 6.7 °C -8.8 °C 1022.2 hPa Calm     32% 0 mm 0.0 W/m2 SCT
08:30 8 °C -7.7 °C 1022.6 hPa Calm     32% 0 mm 0.0 W/m2 SCT
08:45 9.9 °C -6.1 °C 1022.6 hPa Calm     32% 0 mm 0.0 W/m2 SCT
09:00 10.8 °C -5.2 °C 1022.9 hPa Calm     32% 0 mm 0.0 W/m2 SCT
09:15 12 °C -4.2 °C 1022.9 hPa Calm     32% 0 mm 0.0 W/m2 SCT
09:30 13.3 °C 3.1 °C 1023.2 hPa Calm   1.6 km/h 50% 0 mm W/m2 SCT
09:45 14.7 °C 3.2 °C 1023.2 hPa Calm   1.6 km/h 46% 0 mm W/m2 SCT
10:00 16.4 °C 2.8 °C 1023.6 hPa Calm   1.6 km/h 40% 0 mm W/m2 SCT
10:15 17.9 °C 3.7 °C 1023.6 hPa Calm     39% 0 mm W/m2 SCT
10:30 18.6 °C 2.4 °C 1023.6 hPa Calm   1.6 km/h 34% 0 mm W/m2 SCT
10:45 19.4 °C 1.3 °C 1023.6 hPa Calm   3.2 km/h 30% 0 mm W/m2 SCT
11:00 19.9 °C 0.4 °C 1023.6 hPa Calm   4.8 km/h 27% 0 mm W/m2 SCT
11:15 20.7 °C 0.4 °C 1023.6 hPa Calm   8 km/h 26% 0 mm W/m2 SCT
11:30 21.7 °C 2.4 °C 1023.9 hPa Calm   1.6 km/h 28% 0 mm W/m2 SCT
11:45 22.4 °C 0.3 °C 1023.6 hPa Calm   3.2 km/h 23% 0 mm W/m2 SCT
12:00 22.9 °C 0.1 °C 1023.6 hPa Calm   8 km/h 22% 0 mm W/m2 SCT
12:15 23.7 °C -0.6 °C 1023.6 hPa Calm   8 km/h 20% 0 mm W/m2 SCT
12:30 24.2 °C -2.4 °C 1023.2 hPa Calm   3.2 km/h 17% 0 mm W/m2 SCT
12:45 24.2 °C -2.4 °C 1023.2 hPa WSW 3.2 km/h 4.8 km/h 17% 0 mm W/m2 SCT
13:00 24.4 °C 6.2 °C 1022.9 hPa WNW 1.6 km/h 4.8 km/h 31% 0 mm W/m2 SCT
13:15 24.6 °C 0.1 °C 1022.9 hPa Calm   4.8 km/h 20% 0 mm W/m2 SCT
13:30 24.2 °C -0.9 °C 1022.9 hPa NW 1.6 km/h 8 km/h 19% 0 mm W/m2 SCT
13:45 24.8 °C -2.7 °C 1022.6 hPa WNW 1.6 km/h 4.8 km/h 16% 0 mm W/m2 SCT
14:00 25.1 °C -0.9 °C 1022.2 hPa Calm   4.8 km/h 18% 0 mm W/m2 SCT
14:15 25.2 °C -0.8 °C 1022.2 hPa Calm   8 km/h 18% 0 mm W/m2 SCT
14:30 25.7 °C 1 °C 1022.2 hPa West 1.6 km/h 4.8 km/h 20% 0 mm W/m2 SCT
14:45 25.4 °C -0.6 °C 1021.9 hPa Calm   4.8 km/h 18% 0 mm W/m2 SCT
15:00 24.9 °C -1.1 °C 1021.9 hPa Calm   4.8 km/h 18% 0 mm W/m2 SCT
15:15 25 °C -0.2 °C 1021.6 hPa Calm   4.8 km/h 19% 0 mm W/m2 SCT
15:30 24.7 °C -2 °C 1021.2 hPa WNW 1.6 km/h 4.8 km/h 17% 0 mm W/m2 SCT
15:45 24.7 °C 0.2 °C 1021.2 hPa NW 1.6 km/h 4.8 km/h 20% 0 mm W/m2 SCT
16:00 24.7 °C -2.8 °C 1021.2 hPa NW 1.6 km/h 4.8 km/h 16% 0 mm W/m2 SCT
16:15 24.5 °C -2.2 °C 1020.9 hPa Calm   8 km/h 17% 0 mm W/m2 SCT
16:30 24.4 °C -1.5 °C 1020.9 hPa Calm   4.8 km/h 18% 0 mm W/m2 SCT
16:45 24.5 °C -3 °C 1020.2 hPa WNW 1.6 km/h 4.8 km/h 16% 0 mm W/m2 SCT
17:15 24.3 °C -3.1 °C 1020.5 hPa Calm   4.8 km/h 16% 0 mm W/m2 SCT
17:30 24.3 °C -2.3 °C 1020.5 hPa NW 1.6 km/h 4.8 km/h 17% 0 mm W/m2 SCT
17:45 24.3 °C -1.6 °C 1020.5 hPa Calm   3.2 km/h 18% 0 mm W/m2 SCT
18:00 23.9 °C -3.4 °C 1020.2 hPa Calm   8 km/h 16% 0 mm W/m2 SCT
18:15 23.7 °C -3.6 °C 1020.5 hPa Calm   8 km/h 16% 0 mm W/m2 SCT
18:30 23.6 °C -1.4 °C 1020.2 hPa Calm   6.4 km/h 19% 0 mm W/m2 SCT
18:45 23.1 °C -1.8 °C 1020.5 hPa Calm   11.3 km/h 19% 0.51 mm W/m2 SCT
19:00 22.7 °C -2.8 °C 1020.2 hPa Calm   3.2 km/h 18% 0 mm W/m2 SCT
19:15 22.4 °C 4 °C 1020.5 hPa Calm   3.2 km/h 30% 0 mm W/m2 SCT
19:30 21.9 °C -0.8 °C 1020.5 hPa Calm   3.2 km/h 22% 0 mm W/m2 SCT
19:45 21.2 °C 0.3 °C 1020.5 hPa Calm     25% 0 mm W/m2 SCT
20:00 20.5 °C 0.3 °C 1020.5 hPa Calm     26% 0 mm W/m2 SCT
20:15 20 °C -0.1 °C 1020.5 hPa Calm     26% 0 mm W/m2 SCT
20:30 19.6 °C 0.6 °C 1020.5 hPa Calm     28% 0 mm W/m2 SCT
20:45 19.2 °C -0.3 °C 1020.9 hPa Calm     27% 0 mm W/m2 SCT
21:00 18.5 °C 1.5 °C 1020.9 hPa Calm     32% 0 mm W/m2 SCT
21:15 17.7 °C 0.8 °C 1021.2 hPa Calm     32% 0 mm W/m2 SCT
21:30 16.7 °C 0.3 °C 1020.9 hPa Calm     33% 0 mm W/m2 SCT
21:45 16.8 °C 2.4 °C 1021.6 hPa Calm     38% 0 mm W/m2 SCT
22:00 16.6 °C 1 °C 1021.9 hPa Calm     35% 0 mm W/m2 SCT
22:15 16.4 °C 0.9 °C 1021.9 hPa Calm     35% 0 mm W/m2 SCT
22:30 16.2 °C 0.7 °C 1021.6 hPa Calm     35% 0 mm W/m2 SCT
22:45 16.2 °C 1.1 °C 1021.9 hPa Calm     36% 0 mm W/m2 SCT
23:00 16.2 °C 1.1 °C 1022.2 hPa Calm     36% 0 mm W/m2 SCT
23:15 15.6 °C 3.1 °C 1021.9 hPa Calm     43% 0 mm W/m2 SCT
23:30 15.1 °C 2.9 °C 1022.2 hPa Calm     44% 0 mm W/m2 SCT
23:45 14.6 °C 3.7 °C 1022.2 hPa Calm     48% 0 mm W/m2 SCT
Piedmont Bend
Compliments of Weather Underground - 4 mb